Time;durP1;ratioP1;P1;durP2;ratioP2;P2;SDS_P1;SDS_P2;PMS_P1;PMS_P2;Temp;Humidity;BMP_temperature;BMP_pressure;BME280_temperature;BME280_humidity;BME280_pressure;Samples;Min_cycle;Max_cycle;Signal;HPM_P1;HPM_P2
2021/12/27 07:40:20;;;;;;;29.27;13.43;;;;;;;2.55;85.97;97028.53;5650326;23;19927;-51
2021/12/27 07:42:45;;;;;;;25.48;13.27;;;;;;;2.59;85.72;97014.50;4935744;29;20040;-52
2021/12/27 07:45:10;;;;;;;29.08;14.23;;;;;;;2.51;86.01;97013.25;4927202;29;20032;-51
2021/12/27 07:47:36;;;;;;;29.27;12.57;;;;;;;2.57;86.02;97018.91;4924621;29;20106;-52
2021/12/27 07:50:02;;;;;;;30.88;13.88;;;;;;;2.65;85.67;97020.25;4924571;29;20036;-51
2021/12/27 07:52:28;;;;;;;27.35;13.27;;;;;;;2.60;85.98;97021.34;4926952;29;20035;-52
2021/12/27 07:54:53;;;;;;;27.15;12.73;;;;;;;2.74;85.52;97011.97;4939272;29;20031;-51
2021/12/27 07:57:19;;;;;;;25.63;12.07;;;;;;;2.66;85.80;97012.41;4943222;29;20455;-50
2021/12/27 07:59:48;;;;;;;29.60;14.55;;;;;;;2.76;85.39;97007.56;4943682;29;20388;-50
2021/12/27 08:02:16;;;;;;;33.08;14.85;;;;;;;2.91;84.89;97011.03;4942571;29;20080;-50
2021/12/27 08:04:41;;;;;;;32.63;14.93;;;;;;;2.90;84.91;97010.19;4941960;29;20032;-49
2021/12/27 08:07:07;;;;;;;30.33;15.52;;;;;;;2.92;85.41;97005.75;4942744;29;20034;-51
2021/12/27 08:09:32;;;;;;;27.55;14.98;;;;;;;2.84;85.91;97015.72;4944998;29;20035;-48
2021/12/27 08:11:57;;;;;;;28.65;14.60;;;;;;;2.79;85.46;97018.56;4942798;29;20028;-51
2021/12/27 08:14:23;;;;;;;29.52;14.23;;;;;;;2.92;85.69;97025.63;4943186;29;20095;-51
2021/12/27 08:16:48;;;;;;;33.03;15.43;;;;;;;2.75;86.15;97017.09;4943794;29;20024;-52
2021/12/27 08:19:14;;;;;;;36.13;16.48;;;;;;;2.54;86.31;97029.44;4944241;29;20110;-51
2021/12/27 08:21:39;;;;;;;37.83;18.25;;;;;;;2.87;86.12;97032.84;4939218;29;20027;-50
2021/12/27 08:24:08;;;;;;;38.05;16.90;;;;;;;2.79;86.33;97020.34;4925337;29;20032;-51
2021/12/27 08:26:33;;;;;;;35.38;14.93;;;;;;;2.90;86.09;97014.53;4925995;29;20039;-54
2021/12/27 08:28:59;;;;;;;36.53;14.98;;;;;;;2.96;85.64;97015.03;4925317;29;20016;-53
2021/12/27 08:31:24;;;;;;;31.67;14.73;;;;;;;2.97;85.93;97016.69;4925509;29;20028;-53
2021/12/27 08:33:49;;;;;;;33.53;14.80;;;;;;;3.04;85.98;97014.59;4938855;29;20031;-52
2021/12/27 08:36:15;;;;;;;34.38;14.63;;;;;;;3.15;85.56;97009.63;4943705;29;20043;-52
2021/12/27 08:38:40;;;;;;;35.83;14.48;;;;;;;3.17;85.20;97001.78;4943552;29;20030;-53
2021/12/27 08:41:06;;;;;;;36.50;15.35;;;;;;;3.30;85.44;97007.88;4942908;29;20036;-53
2021/12/27 08:43:31;;;;;;;31.05;15.23;;;;;;;3.26;84.84;96998.63;4943076;29;20050;-53
2021/12/27 08:45:59;;;;;;;32.97;14.38;;;;;;;3.31;84.79;97004.38;4942128;29;20020;-53
2021/12/27 08:48:24;;;;;;;32.05;14.18;;;;;;;3.12;85.96;97009.78;4943283;29;20020;-48
2021/12/27 08:50:49;;;;;;;38.50;14.80;;;;;;;3.23;85.81;97014.34;4936011;29;20052;-51
2021/12/27 08:53:15;;;;;;;35.17;14.90;;;;;;;3.32;85.58;97019.00;4924586;29;20038;-52
2021/12/27 08:55:41;;;;;;;32.17;14.82;;;;;;;3.33;85.41;97023.25;4941687;29;20024;-52
2021/12/27 08:58:06;;;;;;;37.13;14.50;;;;;;;3.30;85.42;97028.63;4944313;29;20023;-51
2021/12/27 09:00:32;;;;;;;32.72;15.75;;;;;;;3.34;85.31;97024.94;4941695;29;20035;-50
2021/12/27 09:02:57;;;;;;;32.90;15.35;;;;;;;3.23;85.35;97024.72;4941477;29;20024;-47
2021/12/27 09:05:23;;;;;;;31.70;14.07;;;;;;;3.31;85.62;97020.78;4942670;29;20035;-51
2021/12/27 09:07:48;;;;;;;30.02;13.45;;;;;;;3.69;84.05;97020.28;4943061;29;20024;-51
2021/12/27 09:10:14;;;;;;;35.40;15.82;;;;;;;3.59;84.66;97005.34;4944002;29;20023;-50
2021/12/27 09:12:40;;;;;;;32.72;15.05;;;;;;;3.60;84.64;97010.44;4946027;29;20032;-51
2021/12/27 09:15:06;;;;;;;35.05;15.20;;;;;;;3.64;84.97;97016.28;4946392;29;20023;-50
2021/12/27 09:17:31;;;;;;;36.35;14.90;;;;;;;3.71;84.07;97010.63;4947226;29;20020;-52
2021/12/27 09:19:57;;;;;;;30.85;12.95;;;;;;;3.72;84.18;97012.31;4931166;29;20122;-53
2021/12/27 09:22:22;;;;;;;32.95;14.65;;;;;;;3.67;84.81;97005.72;4927438;29;20036;-51
2021/12/27 09:24:48;;;;;;;31.38;14.25;;;;;;;3.77;84.28;97009.44;4927028;29;20034;-51
2021/12/27 09:27:13;;;;;;;32.35;14.38;;;;;;;3.80;84.11;97006.66;4940413;29;20031;-49
2021/12/27 09:29:41;;;;;;;34.47;14.90;;;;;;;3.86;83.61;97005.47;4946377;29;20032;-52
2021/12/27 09:32:06;;;;;;;34.10;13.32;;;;;;;3.77;84.45;97006.84;4945778;29;20032;-53
2021/12/27 09:34:32;;;;;;;32.17;15.10;;;;;;;3.85;84.36;96998.59;4926900;29;20124;-50
2021/12/27 09:36:57;;;;;;;30.95;14.45;;;;;;;4.00;83.31;96995.91;4933060;29;20027;-52
2021/12/27 09:39:22;;;;;;;35.55;14.45;;;;;;;4.08;83.52;97004.97;4945327;29;20031;-52
2021/12/27 09:41:48;;;;;;;33.65;13.90;;;;;;;4.00;83.98;96992.47;4945006;29;20042;-53
2021/12/27 09:44:13;;;;;;;31.60;14.60;;;;;;;3.97;83.96;96997.84;4945528;29;20039;-51
2021/12/27 09:46:38;;;;;;;34.92;14.68;;;;;;;3.88;83.74;96990.63;4940296;29;20024;-53
2021/12/27 09:49:07;;;;;;;33.92;14.85;;;;;;;3.99;83.57;96995.97;4940081;29;20480;-48
2021/12/27 09:51:34;;;;;;;32.55;14.30;;;;;;;3.92;84.23;96995.56;4941553;29;20376;-51
2021/12/27 09:54:00;;;;;;;33.00;14.18;;;;;;;4.02;84.10;96995.78;4940668;29;20312;-51
2021/12/27 09:56:26;;;;;;;34.10;15.00;;;;;;;3.85;84.57;96991.63;4941204;29;20036;-51
2021/12/27 09:58:51;;;;;;;36.63;15.43;;;;;;;3.88;84.22;96993.22;4941165;29;20034;-47
2021/12/27 10:01:16;;;;;;;39.80;16.48;;;;;;;3.73;84.94;97000.19;4941671;29;20034;-48
2021/12/27 10:03:55;;;;;;;36.83;15.13;;;;;;;3.90;84.39;97002.59;4941742;29;20403;-48
2021/12/27 10:06:22;;;;;;;32.20;14.10;;;;;;;4.13;83.46;97008.09;4941738;29;20023;-48
2021/12/27 10:08:49;;;;;;;33.08;14.30;;;;;;;4.10;83.81;96997.94;4942897;29;20071;-49
2021/12/27 10:11:42;;;;;;;32.40;13.88;;;;;;;4.10;84.29;96993.59;4943308;29;20053;-48
2021/12/27 10:14:15;;;;;;;33.30;14.18;;;;;;;4.04;84.02;96996.53;4942328;29;20031;-48
2021/12/27 10:16:46;;;;;;;35.53;14.38;;;;;;;3.91;84.68;96993.84;4926981;29;20111;-49
2021/12/27 10:19:12;;;;;;;32.20;13.95;;;;;;;4.25;83.59;96984.00;4923321;29;20020;-50
2021/12/27 10:21:41;;;;;;;30.65;13.05;;;;;;;4.35;82.97;96987.69;4924734;29;20044;-51
2021/12/27 10:24:17;;;;;;;39.90;15.02;;;;;;;4.14;83.98;96986.44;4924020;29;20488;-48
2021/12/27 10:26:44;;;;;;;37.05;14.50;;;;;;;4.29;82.99;96981.09;4924541;29;20055;-49
2021/12/27 10:29:18;;;;;;;35.63;13.93;;;;;;;4.38;83.42;96984.91;4938373;29;20546;-50
2021/12/27 10:31:54;;;;;;;34.45;14.15;;;;;;;4.51;83.44;96980.59;4943146;29;20038;-49
2021/12/27 10:34:20;;;;;;;34.25;14.23;;;;;;;4.53;82.52;96976.13;4943028;29;20028;-49
2021/12/27 10:37:08;;;;;;;31.95;14.23;;;;;;;4.65;82.56;96981.50;4942675;29;20031;-48
2021/12/27 10:39:47;;;;;;;33.40;14.48;;;;;;;4.56;82.77;96987.25;4941677;29;20028;-51
2021/12/27 10:42:20;;;;;;;32.00;13.48;;;;;;;4.57;82.61;96981.94;4941820;29;20404;-52
2021/12/27 10:44:46;;;;;;;31.38;13.50;;;;;;;4.38;83.75;96977.13;4923691;29;20028;-50
2021/12/27 10:47:26;;;;;;;35.47;14.63;;;;;;;4.50;82.67;96965.94;4922950;29;20099;-51
2021/12/27 10:49:52;;;;;;;28.73;13.60;;;;;;;4.46;83.03;96964.47;4933224;29;20020;-49
2021/12/27 10:52:17;;;;;;;33.97;14.27;;;;;;;4.43;83.00;96964.66;4941580;29;20028;-48
2021/12/27 10:54:42;;;;;;;34.83;14.48;;;;;;;4.45;83.20;96968.00;4941388;29;20067;-51
2021/12/27 10:57:08;;;;;;;35.33;14.13;;;;;;;4.37;83.79;96964.22;4941352;29;20032;-52
2021/12/27 10:59:33;;;;;;;37.33;13.90;;;;;;;4.51;83.71;96965.03;4934840;29;20395;-49
2021/12/27 11:02:13;;;;;;;29.48;12.27;;;;;;;4.45;83.76;96962.81;4922739;29;20028;-47
2021/12/27 11:04:39;;;;;;;34.55;13.23;;;;;;;4.45;83.20;96962.81;4923012;29;20389;-51
2021/12/27 11:07:04;;;;;;;31.45;13.80;;;;;;;4.37;83.87;96965.06;4922330;29;20021;-51
2021/12/27 11:09:31;;;;;;;30.48;12.32;;;;;;;4.47;83.06;96960.97;4938371;29;20476;-50
2021/12/27 11:11:56;;;;;;;30.33;13.10;;;;;;;4.71;82.43;96945.56;4931461;29;20377;-50
2021/12/27 11:14:22;;;;;;;27.90;13.07;;;;;;;4.62;82.35;96940.13;4906537;29;20078;-52
2021/12/27 11:16:47;;;;;;;28.02;12.55;;;;;;;4.74;82.08;96941.91;4923708;29;20028;-51
2021/12/27 11:19:12;;;;;;;28.88;11.57;;;;;;;4.69;81.99;96933.59;4930468;29;20062;-49
2021/12/27 11:21:41;;;;;;;29.48;12.80;;;;;;;4.70;82.61;96930.06;4942978;29;20031;-50
2021/12/27 11:24:06;;;;;;;29.60;12.73;;;;;;;4.81;82.00;96932.78;4940369;29;20035;-50
2021/12/27 11:26:33;;;;;;;28.45;13.63;;;;;;;4.71;81.82;96934.31;4939942;29;20040;-49
2021/12/27 11:29:12;;;;;;;30.48;13.15;;;;;;;4.83;81.41;96925.75;4941929;29;20392;-48
2021/12/27 11:31:38;;;;;;;30.23;13.00;;;;;;;4.57;82.50;96924.81;4946542;29;20383;-52
2021/12/27 11:34:08;;;;;;;29.73;13.45;;;;;;;4.49;82.60;96922.72;4946566;29;20030;-48
2021/12/27 11:36:38;;;;;;;44.85;17.20;;;;;;;4.57;82.31;96924.81;4941400;29;20028;-47
2021/12/27 11:39:25;;;;;;;54.90;21.00;;;;;;;4.57;82.38;96918.81;4939390;29;20075;-51
2021/12/27 11:42:05;;;;;;;34.90;14.65;;;;;;;4.65;82.14;96921.75;4940416;29;20028;-50
2021/12/27 11:44:35;;;;;;;29.65;13.50;;;;;;;4.67;81.89;96925.06;4940775;29;20054;-50
2021/12/27 11:47:00;;;;;;;28.45;13.50;;;;;;;4.70;82.16;96919.69;4940292;29;20035;-48
2021/12/27 11:49:33;;;;;;;32.45;14.07;;;;;;;4.81;81.33;96921.56;4938192;29;20020;-52
2021/12/27 11:52:29;;;;;;;30.60;14.13;;;;;;;4.79;81.58;96918.25;4938497;29;20043;-52
2021/12/27 11:55:05;;;;;;;29.90;13.15;;;;;;;4.67;81.61;96919.88;4927234;29;20042;-52
2021/12/27 11:57:43;;;;;;;32.13;14.38;;;;;;;4.75;81.33;96917.63;4919495;29;20033;-50
2021/12/27 12:00:17;;;;;;;30.75;13.55;;;;;;;4.82;81.33;96908.50;4932367;29;20027;-52
2021/12/27 12:02:54;;;;;;;39.30;19.35;;;;;;;4.74;81.40;96910.75;4938600;29;20042;-51
2021/12/27 12:05:48;;;;;;;38.17;17.58;;;;;;;4.71;81.52;96895.34;4939238;29;20056;-49
2021/12/27 12:08:15;;;;;;;38.15;18.80;;;;;;;4.86;80.58;96881.38;4938376;29;20028;-50
2021/12/27 12:10:50;;;;;;;29.85;14.15;;;;;;;4.49;82.11;96890.75;4940096;29;20024;-53
2021/12/27 12:13:37;;;;;;;32.75;14.18;;;;;;;4.52;82.55;96901.75;4940735;29;20054;-51
2021/12/27 12:16:14;;;;;;;32.67;14.27;;;;;;;4.68;81.42;96898.16;4936086;29;20081;-53
2021/12/27 12:19:04;;;;;;;39.78;16.92;;;;;;;4.59;81.76;96896.19;4938927;29;20042;-52
2021/12/27 12:21:48;;;;;;;30.52;13.70;;;;;;;4.53;82.13;96887.84;4939303;29;20028;-53
2021/12/27 12:24:13;;;;;;;29.40;11.93;;;;;;;4.61;81.75;96889.97;4921872;29;20044;-50
2021/12/27 12:26:58;;;;;;;26.83;13.00;;;;;;;4.61;81.28;96891.69;4922729;29;20107;-53
2021/12/27 12:29:25;;;;;;;29.35;13.02;;;;;;;4.68;81.50;96891.22;4938762;29;20038;-52
2021/12/27 12:32:01;;;;;;;26.30;12.68;;;;;;;4.58;81.46;96890.16;4939143;29;20070;-52
2021/12/27 12:34:26;;;;;;;26.90;11.98;;;;;;;4.56;81.30;96885.97;4938718;29;20028;-50
2021/12/27 12:36:52;;;;;;;29.48;13.10;;;;;;;4.55;81.49;96890.34;4935434;29;20042;-53
2021/12/27 12:39:18;;;;;;;30.27;13.82;;;;;;;4.37;82.06;96886.34;4929065;29;20055;-51
2021/12/27 12:41:43;;;;;;;30.27;13.63;;;;;;;4.20;82.60;96875.28;4938547;29;20032;-51
2021/12/27 12:44:09;;;;;;;30.45;14.25;;;;;;;4.08;83.40;96864.84;4931035;29;20115;-48
2021/12/27 12:46:36;;;;;;;31.70;14.50;;;;;;;4.13;83.50;96873.16;4923939;29;20028;-50
2021/12/27 12:49:10;;;;;;;30.73;13.30;;;;;;;4.06;83.07;96862.38;4923680;29;20484;-51
2021/12/27 12:51:49;;;;;;;28.77;13.80;;;;;;;4.33;82.58;96867.53;4910911;29;20067;-51
2021/12/27 12:54:24;;;;;;;29.95;12.93;;;;;;;4.08;83.95;96865.69;4942995;29;20027;-51
2021/12/27 12:56:52;;;;;;;27.98;12.70;;;;;;;4.26;82.96;96866.25;4943125;29;20028;-51
2021/12/27 12:59:21;;;;;;;27.48;12.48;;;;;;;4.09;83.30;96854.38;4923874;29;20024;-52
2021/12/27 13:02:00;;;;;;;28.25;12.45;;;;;;;4.07;83.51;96864.03;4941539;29;20090;-53
2021/12/27 13:04:44;;;;;;;30.17;12.30;;;;;;;3.93;83.81;96859.72;4943581;29;20031;-49
2021/12/27 13:07:10;;;;;;;25.33;12.43;;;;;;;3.95;84.30;96854.41;4943803;29;20027;-54
2021/12/27 13:09:48;;;;;;;26.73;11.70;;;;;;;3.97;84.56;96858.59;4941132;29;20023;-49
2021/12/27 13:12:15;;;;;;;27.10;11.20;;;;;;;3.89;84.26;96845.28;4940341;29;20144;-50
2021/12/27 13:14:40;;;;;;;25.63;11.57;;;;;;;4.14;83.29;96865.31;4942427;29;20024;-52
2021/12/27 13:17:21;;;;;;;27.20;12.43;;;;;;;4.04;83.85;96857.25;4942938;29;20549;-52
2021/12/27 13:20:07;;;;;;;26.30;11.82;;;;;;;3.96;84.15;96851.75;4940788;29;20514;-51
2021/12/27 13:23:06;;;;;;;24.23;10.68;;;;;;;3.96;84.38;96848.31;4921948;29;20044;-53
2021/12/27 13:25:41;;;;;;;25.98;10.52;;;;;;;3.83;85.39;96861.22;4878497;29;20141;-51
2021/12/27 13:28:13;;;;;;;26.25;11.20;;;;;;;3.99;84.70;96871.44;4867156;29;20060;-55
2021/12/27 13:30:42;;;;;;;;;;;;;;;3.94;84.38;96863.13;4867811;29;20037;-52
2021/12/27 13:33:08;;;;;;;22.38;9.93;;;;;;;4.16;84.11;96867.78;4868736;29;19920;-53
2021/12/27 13:35:33;;;;;;;22.92;10.70;;;;;;;4.18;83.89;96860.75;4883679;29;20076;-51
2021/12/27 13:37:58;;;;;;;26.42;9.70;;;;;;;4.18;84.42;96855.56;4883287;29;20055;-55
2021/12/27 13:40:24;;;;;;;22.38;9.80;;;;;;;4.17;84.36;96853.91;4868662;29;20048;-53
2021/12/27 13:42:49;;;;;;;23.63;10.40;;;;;;;4.20;84.61;96851.09;4881788;29;20548;-54
2021/12/27 13:45:16;;;;;;;22.65;10.90;;;;;;;4.17;84.34;96848.72;4883900;29;20029;-51
2021/12/27 13:47:51;;;;;;;23.83;10.88;;;;;;;4.04;84.49;96833.91;4868869;29;20116;-53
2021/12/27 13:50:24;;;;;;;22.73;10.00;;;;;;;4.13;84.67;96845.47;4886409;29;20118;-52
2021/12/27 13:52:50;;;;;;;24.92;10.32;;;;;;;4.08;85.32;96850.13;4885779;29;20077;-54
2021/12/27 13:55:25;;;;;;;22.55;10.55;;;;;;;4.04;84.98;96849.47;4885296;29;20180;-53
2021/12/27 13:57:51;;;;;;;27.50;10.68;;;;;;;4.08;84.66;96851.88;4887268;29;20033;-53
2021/12/27 14:00:17;;;;;;;23.80;10.40;;;;;;;4.29;83.66;96853.09;4879015;29;20050;-53
2021/12/27 14:02:44;;;;;;;27.30;11.50;;;;;;;4.22;84.17;96863.03;4944782;29;20512;-52
2021/12/27 14:05:10;;;;;;;25.10;11.40;;;;;;;4.16;84.55;96865.19;4941165;29;20032;-52
2021/12/27 14:07:35;;;;;;;29.27;12.15;;;;;;;4.26;84.40;96859.31;4945462;29;20026;-49
2021/12/27 14:10:01;;;;;;;30.17;12.48;;;;;;;4.21;84.50;96857.94;4943306;29;20541;-51
2021/12/27 14:12:30;;;;;;;29.40;12.60;;;;;;;4.10;84.68;96868.19;4942128;29;20027;-54
2021/12/27 14:15:01;;;;;;;29.45;11.88;;;;;;;4.15;84.48;96863.53;4943209;29;20024;-50
2021/12/27 14:17:27;;;;;;;27.17;11.25;;;;;;;4.16;85.00;96862.59;4928609;29;20035;-52
2021/12/27 14:20:04;;;;;;;29.23;12.35;;;;;;;4.16;84.87;96865.19;4940582;29;20032;-51
2021/12/27 14:22:49;;;;;;;27.13;11.80;;;;;;;4.13;84.91;96862.78;4942870;29;20035;-48
2021/12/27 14:25:20;;;;;;;24.63;10.95;;;;;;;4.11;85.03;96869.84;4936104;29;20502;-51
2021/12/27 14:27:46;;;;;;;27.27;11.80;;;;;;;4.21;84.72;96857.94;4920244;29;20071;-49
2021/12/27 14:30:25;;;;;;;26.70;12.27;;;;;;;4.31;84.79;96855.59;4930199;29;20040;-48
2021/12/27 14:32:55;;;;;;;28.02;11.52;;;;;;;4.12;85.39;96853.34;4921834;29;20395;-48
2021/12/27 14:35:35;;;;;;;33.15;13.13;;;;;;;4.00;85.75;96842.81;4936361;29;20031;-48
2021/12/27 14:38:03;;;;;;;30.83;12.98;;;;;;;4.06;86.01;96836.44;4935917;29;20111;-48
2021/12/27 14:40:29;;;;;;;28.08;12.63;;;;;;;3.89;86.44;96829.72;4936032;29;20032;-51
2021/12/27 14:42:55;;;;;;;26.23;12.27;;;;;;;4.15;85.47;96824.59;4935972;29;20027;-51
2021/12/27 14:45:20;;;;;;;25.85;12.05;;;;;;;4.02;85.89;96833.16;4935855;29;20023;-50
2021/12/27 14:47:46;;;;;;;27.67;12.38;;;;;;;4.02;86.37;96840.94;4936357;29;20032;-47
2021/12/27 14:50:14;;;;;;;28.35;12.20;;;;;;;4.07;85.86;96837.25;4936211;29;20078;-49
2021/12/27 14:52:39;;;;;;;27.83;11.63;;;;;;;4.17;85.30;96846.13;4936234;29;20059;-48
2021/12/27 14:55:05;;;;;;;27.17;11.52;;;;;;;4.05;85.98;96852.91;4935488;29;20066;-49
2021/12/27 14:57:30;;;;;;;26.95;11.02;;;;;;;3.96;85.82;96856.94;4936103;29;20024;-48
2021/12/27 14:59:56;;;;;;;29.08;11.80;;;;;;;3.95;85.66;96860.44;4936008;29;20031;-49
2021/12/27 15:02:21;;;;;;;26.92;11.48;;;;;;;4.14;85.68;96857.50;4935597;29;20028;-49
2021/12/27 15:04:47;;;;;;;28.00;11.55;;;;;;;3.97;86.26;96863.78;4935667;29;20476;-48
2021/12/27 15:07:12;;;;;;;28.05;11.88;;;;;;;4.13;85.58;96871.44;4934979;29;20038;-49
2021/12/27 15:09:37;;;;;;;26.05;11.55;;;;;;;4.02;86.00;96866.06;4935850;29;20024;-48
2021/12/27 15:12:03;;;;;;;26.27;11.55;;;;;;;4.21;84.95;96878.72;4936134;29;20039;-48
2021/12/27 15:14:28;;;;;;;26.50;11.40;;;;;;;3.96;85.37;96871.66;4935066;29;20395;-48
2021/12/27 15:16:54;;;;;;;24.48;10.20;;;;;;;4.11;85.45;96869.84;4935698;29;20034;-48
2021/12/27 15:19:19;;;;;;;23.40;10.55;;;;;;;4.01;84.90;96862.63;4935762;29;20023;-49
2021/12/27 15:21:45;;;;;;;22.95;10.23;;;;;;;4.21;84.65;96876.13;4935669;29;20028;-51
2021/12/27 15:24:10;;;;;;;24.33;9.95;;;;;;;4.07;84.71;96878.78;4935041;29;20027;-48
2021/12/27 15:26:36;;;;;;;21.52;10.45;;;;;;;4.17;83.92;96872.06;4935538;29;20028;-48
2021/12/27 15:29:01;;;;;;;23.52;9.98;;;;;;;4.15;84.11;96871.31;4935243;29;20112;-52
2021/12/27 15:31:27;;;;;;;23.70;9.93;;;;;;;4.10;84.09;96871.63;4935437;29;20035;-49
2021/12/27 15:33:53;;;;;;;18.65;8.52;;;;;;;4.09;84.16;96884.69;4935234;29;20027;-46
2021/12/27 15:36:19;;;;;;;22.70;9.57;;;;;;;4.29;83.04;96876.44;4935143;29;20115;-51
2021/12/27 15:38:45;;;;;;;20.08;9.05;;;;;;;4.12;84.09;96876.69;4935290;29;20031;-48
2021/12/27 15:41:10;;;;;;;22.75;10.02;;;;;;;4.16;83.56;96883.34;4935171;29;20042;-49
2021/12/27 15:43:36;;;;;;;21.33;8.93;;;;;;;4.12;83.24;96882.72;4935253;29;20032;-50
2021/12/27 15:46:02;;;;;;;21.65;9.90;;;;;;;4.09;83.50;96884.69;4935041;29;20031;-49
2021/12/27 15:48:27;;;;;;;37.75;15.38;;;;;;;4.03;84.08;96885.91;4935431;29;20032;-49
2021/12/27 15:50:55;;;;;;;26.00;11.65;;;;;;;4.16;84.02;96879.00;4935058;29;20032;-50
2021/12/27 15:53:24;;;;;;;29.10;12.25;;;;;;;4.05;83.93;96879.69;4934866;29;20135;-48
2021/12/27 15:55:50;;;;;;;36.22;14.20;;;;;;;3.87;84.48;96882.59;4933530;29;20119;-49
2021/12/27 15:58:15;;;;;;;22.75;10.73;;;;;;;3.84;84.58;96877.63;4934723;29;20039;-50
2021/12/27 16:00:41;;;;;;;39.35;16.65;;;;;;;3.86;85.10;96876.59;4935014;29;20079;-50
2021/12/27 16:03:06;;;;;;;45.10;17.85;;;;;;;3.81;84.89;96873.44;4934999;29;20487;-48
2021/12/27 16:05:31;;;;;;;24.65;9.77;;;;;;;3.92;84.26;96875.34;4934375;29;20031;-48
2021/12/27 16:07:57;;;;;;;27.88;11.93;;;;;;;3.97;84.52;96879.34;4934984;29;20531;-49
2021/12/27 16:10:24;;;;;;;23.83;10.25;;;;;;;4.01;84.09;96878.22;4934908;29;20028;-49
2021/12/27 16:12:50;;;;;;;25.13;11.15;;;;;;;3.80;84.27;96872.63;4934445;29;20043;-51
2021/12/27 16:15:16;;;;;;;26.02;11.77;;;;;;;3.85;84.41;96877.50;4933939;29;20373;-49
2021/12/27 16:17:41;;;;;;;22.17;10.05;;;;;;;3.88;84.28;96869.53;4934478;29;20034;-51
2021/12/27 16:20:08;;;;;;;24.70;10.55;;;;;;;3.87;83.81;96873.06;4933324;29;20027;-48
2021/12/27 16:22:36;;;;;;;21.98;9.75;;;;;;;3.86;83.95;96870.59;4934600;29;20038;-48
2021/12/27 16:25:03;;;;;;;25.38;10.75;;;;;;;3.92;84.11;96871.03;4934197;29;20114;-48
2021/12/27 16:27:28;;;;;;;22.90;10.75;;;;;;;3.84;84.53;96875.84;4933848;29;20036;-48
2021/12/27 16:29:54;;;;;;;25.27;11.40;;;;;;;3.82;84.29;96877.72;4934553;29;20023;-48
2021/12/27 16:32:19;;;;;;;24.88;10.82;;;;;;;3.81;84.32;96884.66;4934502;29;20024;-49
2021/12/27 16:34:45;;;;;;;30.27;12.35;;;;;;;3.64;84.75;96892.63;4934356;29;20032;-49
2021/12/27 16:37:10;;;;;;;30.25;13.07;;;;;;;3.86;84.14;96893.94;4934239;29;20031;-48
2021/12/27 16:39:37;;;;;;;28.90;11.98;;;;;;;3.80;84.30;96897.72;4933809;29;20023;-49
2021/12/27 16:42:02;;;;;;;29.45;12.63;;;;;;;3.75;83.70;96884.19;4934326;29;20044;-49
2021/12/27 16:44:28;;;;;;;31.52;13.45;;;;;;;3.72;83.88;96881.81;4934268;29;20034;-50
2021/12/27 16:46:53;;;;;;;30.20;13.50;;;;;;;3.81;83.99;96883.81;4934066;29;20039;-48
2021/12/27 16:49:19;;;;;;;31.73;13.45;;;;;;;3.58;84.54;96887.84;4934474;29;20020;-48
2021/12/27 16:51:44;;;;;;;29.70;13.00;;;;;;;3.62;85.00;96894.50;4933072;29;20027;-51
2021/12/27 16:54:09;;;;;;;31.80;13.40;;;;;;;3.48;84.77;96897.94;4934688;29;20078;-50
2021/12/27 16:56:35;;;;;;;29.10;12.45;;;;;;;3.62;84.50;96896.28;4933067;29;20051;-48
2021/12/27 16:59:00;;;;;;;29.02;12.90;;;;;;;3.53;84.54;96901.06;4933776;29;20031;-51
2021/12/27 17:01:26;;;;;;;30.60;13.52;;;;;;;3.72;83.64;96898.19;4934397;29;20336;-48
2021/12/27 17:03:54;;;;;;;32.58;14.43;;;;;;;3.54;84.53;96897.59;4934107;29;20030;-51
2021/12/27 17:06:20;;;;;;;31.35;13.73;;;;;;;3.55;84.14;96898.41;4934126;29;20036;-49
2021/12/27 17:08:45;;;;;;;30.25;13.65;;;;;;;3.44;84.53;96899.06;4933847;29;20031;-48
2021/12/27 17:11:10;;;;;;;29.80;12.45;;;;;;;3.53;84.02;96895.88;4933840;29;20487;-48
2021/12/27 17:13:36;;;;;;;32.55;13.52;;;;;;;3.52;83.96;96902.00;4933412;29;20086;-48
2021/12/27 17:16:01;;;;;;;28.23;13.32;;;;;;;3.63;83.77;96908.31;4934195;29;20480;-48
2021/12/27 17:18:27;;;;;;;27.95;13.10;;;;;;;3.58;83.55;96908.59;4934254;29;20024;-48
2021/12/27 17:20:52;;;;;;;30.95;13.57;;;;;;;3.59;83.11;96904.25;4933786;29;20028;-52
2021/12/27 17:23:19;;;;;;;28.27;13.18;;;;;;;3.43;83.82;96899.97;4926329;29;20099;-48
2021/12/27 17:25:45;;;;;;;31.63;15.45;;;;;;;3.23;84.70;96895.97;4915876;29;20444;-49
2021/12/27 17:28:11;;;;;;;34.60;14.45;;;;;;;3.38;84.13;96896.84;4922021;29;20024;-49
2021/12/27 17:30:38;;;;;;;33.75;14.55;;;;;;;3.46;84.21;96896.38;4935649;29;20078;-50
2021/12/27 17:33:03;;;;;;;39.65;16.50;;;;;;;3.61;83.18;96886.81;4937180;29;20027;-47
2021/12/27 17:35:29;;;;;;;36.45;15.02;;;;;;;3.51;83.20;96899.50;4935992;29;20476;-48
2021/12/27 17:37:54;;;;;;;30.33;13.98;;;;;;;3.44;82.96;96906.84;4932839;29;20034;-47
2021/12/27 17:40:20;;;;;;;28.42;12.00;;;;;;;3.46;83.36;96902.38;4936873;29;20054;-48
2021/12/27 17:42:45;;;;;;;30.55;13.55;;;;;;;3.37;83.12;96897.75;4937114;29;20031;-52
2021/12/27 17:45:13;;;;;;;28.88;13.32;;;;;;;3.41;83.39;96901.84;4935222;29;20024;-48
2021/12/27 17:47:40;;;;;;;28.33;13.15;;;;;;;3.47;82.50;96893.66;4934565;29;20588;-50
2021/12/27 17:50:06;;;;;;;30.98;14.43;;;;;;;3.51;82.82;96897.75;4926452;29;20318;-49
2021/12/27 17:52:31;;;;;;;33.65;15.35;;;;;;;3.33;83.54;96901.44;4937180;29;20488;-48
2021/12/27 17:54:56;;;;;;;31.63;15.35;;;;;;;3.30;83.87;96899.03;4936749;29;20023;-49
2021/12/27 17:57:22;;;;;;;32.75;16.05;;;;;;;3.36;82.77;96903.84;4936620;29;20024;-47
2021/12/27 17:59:47;;;;;;;33.63;15.13;;;;;;;3.12;83.79;96900.16;4931192;29;20091;-51
2021/12/27 18:02:12;;;;;;;32.53;15.57;;;;;;;3.17;83.29;96903.31;4918113;29;20401;-49
2021/12/27 18:04:38;;;;;;;32.30;13.93;;;;;;;3.11;83.92;96903.66;4921785;29;20369;-48
2021/12/27 18:07:04;;;;;;;33.78;17.20;;;;;;;3.23;83.58;96910.69;4936681;29;20098;-48
2021/12/27 18:09:30;;;;;;;32.00;15.90;;;;;;;3.42;82.53;96913.03;4936662;29;20031;-48
2021/12/27 18:11:55;;;;;;;33.63;15.60;;;;;;;3.29;82.71;96912.94;4937040;29;20058;-49
2021/12/27 18:14:21;;;;;;;33.47;15.40;;;;;;;3.22;83.20;96911.63;4936077;29;20031;-50
2021/12/27 18:16:46;;;;;;;31.02;14.82;;;;;;;3.19;83.19;96911.81;4928358;29;20040;-48
2021/12/27 18:19:12;;;;;;;28.85;14.05;;;;;;;3.20;82.94;96911.72;4917640;29;20027;-49
2021/12/27 18:21:37;;;;;;;32.03;14.30;;;;;;;3.17;82.98;96911.09;4917570;29;20036;-51
2021/12/27 18:24:07;;;;;;;31.73;14.38;;;;;;;3.18;83.09;96915.34;4917326;29;20028;-49
2021/12/27 18:26:33;;;;;;;28.08;12.70;;;;;;;3.24;82.27;96912.38;4926419;29;20616;-48
2021/12/27 18:28:58;;;;;;;28.75;13.75;;;;;;;3.19;83.12;96922.16;4935562;29;20036;-50
2021/12/27 18:31:24;;;;;;;37.10;18.58;;;;;;;3.27;82.31;96915.63;4936235;29;20515;-49
2021/12/27 18:33:49;;;;;;;53.33;23.25;;;;;;;3.23;82.58;96916.72;4936474;29;20034;-49
2021/12/27 18:36:14;;;;;;;28.75;13.65;;;;;;;3.01;82.87;96919.75;4936136;29;20365;-49
2021/12/27 18:38:40;;;;;;;29.77;12.48;;;;;;;2.99;82.80;96910.38;4936210;29;20035;-49
2021/12/27 18:41:05;;;;;;;31.85;13.55;;;;;;;2.95;83.35;96909.72;4936298;29;20433;-48
2021/12/27 18:43:31;;;;;;;28.20;13.43;;;;;;;3.17;82.90;96916.25;4932787;29;20036;-49
2021/12/27 18:45:57;;;;;;;28.65;13.75;;;;;;;3.30;81.85;96912.00;4917329;29;20430;-48
2021/12/27 18:48:22;;;;;;;32.17;13.60;;;;;;;3.11;82.07;96911.44;4930277;29;20024;-49
2021/12/27 18:50:48;;;;;;;32.72;13.68;;;;;;;3.38;81.63;96917.56;4935785;29;20031;-48
2021/12/27 18:53:13;;;;;;;29.42;13.30;;;;;;;3.48;81.11;96910.91;4935922;29;20467;-50
2021/12/27 18:55:40;;;;;;;29.33;14.25;;;;;;;3.17;82.17;96911.09;4936200;29;20031;-51
2021/12/27 18:58:07;;;;;;;28.10;12.93;;;;;;;3.23;82.40;96914.13;4933680;29;20062;-48
2021/12/27 19:00:40;;;;;;;30.02;13.80;;;;;;;3.32;81.37;96912.75;4917184;29;20201;-48
2021/12/27 19:03:06;;;;;;;32.00;13.73;;;;;;;3.25;81.49;96916.63;4916990;29;20480;-49
2021/12/27 19:05:32;;;;;;;32.33;15.45;;;;;;;3.19;82.05;96914.41;4916490;29;20032;-52
2021/12/27 19:07:57;;;;;;;32.05;15.73;;;;;;;3.17;81.38;96908.50;4916817;29;20034;-48
2021/12/27 19:10:22;;;;;;;33.72;14.80;;;;;;;2.79;83.34;96914.16;4934514;29;20023;-44